Time;durP1;ratioP1;P1;durP2;ratioP2;P2;SDS_P1;SDS_P2;PMS_P1;PMS_P2;Temp;Humidity;BMP_temperature;BMP_pressure;BME280_temperature;BME280_humidity;BME280_pressure;Samples;Min_cycle;Max_cycle;Signal;HPM_P1;HPM_P2
2022/10/16 00:00:22;;;;;;;;;5.00;5.00;;;;;;;;5006250;27;51512;-68
2022/10/16 00:02:47;;;;;;;;;2.00;1.00;;;;;;;;5002222;27;51261;-70
2022/10/16 00:05:13;;;;;;;;;5.00;5.00;;;;;;;;5003007;27;51266;-68
2022/10/16 00:07:38;;;;;;;;;3.00;3.00;;;;;;;;5001990;27;51217;-69
2022/10/16 00:10:03;;;;;;;;;4.00;4.00;;;;;;;;5008478;27;51432;-70
2022/10/16 00:12:28;;;;;;;;;4.00;3.67;;;;;;;;5006026;27;51180;-70
2022/10/16 00:14:54;;;;;;;;;4.00;3.33;;;;;;;;5003829;27;50980;-68
2022/10/16 00:17:19;;;;;;;;;2.67;2.67;;;;;;;;5064444;27;51112;-68
2022/10/16 00:19:44;;;;;;;;;3.00;2.33;;;;;;;;5022774;27;50983;-69
2022/10/16 00:22:09;;;;;;;;;4.33;4.33;;;;;;;;5005729;27;51157;-68
2022/10/16 00:24:34;;;;;;;;;9.00;8.00;;;;;;;;4998110;27;51767;-68
2022/10/16 00:26:59;;;;;;;;;4.00;4.00;;;;;;;;4991845;27;51201;-68
2022/10/16 00:29:25;;;;;;;;;4.33;3.67;;;;;;;;5007807;27;50972;-69
2022/10/16 00:31:50;;;;;;;;;1.00;1.00;;;;;;;;5010335;28;54522;-70
2022/10/16 00:34:15;;;;;;;;;4.33;4.00;;;;;;;;5005491;27;51090;-69
2022/10/16 00:36:40;;;;;;;;;6.00;6.00;;;;;;;;5001006;27;51141;-69
2022/10/16 00:39:05;;;;;;;;;3.00;3.00;;;;;;;;5004561;27;50896;-69
2022/10/16 00:41:31;;;;;;;;;25.67;22.00;;;;;;;;4998763;27;53719;-69
2022/10/16 00:43:57;;;;;;;;;7.67;7.67;;;;;;;;5006055;27;51090;-70
2022/10/16 00:46:25;;;;;;;;;3.00;3.00;;;;;;;;5004838;27;51119;-68
2022/10/16 00:48:50;;;;;;;;;5.00;5.00;;;;;;;;5008313;27;51292;-71
2022/10/16 00:51:16;;;;;;;;;4.00;4.00;;;;;;;;5061830;27;51701;-69
2022/10/16 00:53:42;;;;;;;;;2.00;2.00;;;;;;;;5008795;27;51157;-69
2022/10/16 00:56:07;;;;;;;;;3.00;3.00;;;;;;;;5006375;27;51081;-69
2022/10/16 00:58:32;;;;;;;;;6.00;5.00;;;;;;;;5000046;27;51302;-69
2022/10/16 01:00:57;;;;;;;;;5.33;5.33;;;;;;;;5004785;27;51201;-69
2022/10/16 01:03:33;;;;;;;;;4.00;4.00;;;;;;;;5005123;27;50990;-68
2022/10/16 01:06:18;;;;;;;;;5.67;5.67;;;;;;;;5006950;27;50976;-69
2022/10/16 01:09:03;;;;;;;;;4.00;4.00;;;;;;;;5006629;27;51213;-69
2022/10/16 01:11:35;;;;;;;;;13.25;13.25;;;;;;;;5001592;27;52903;-69
2022/10/16 01:14:05;;;;;;;;;37.25;33.50;;;;;;;;4998552;27;51209;-70
2022/10/16 01:16:43;;;;;;;;;7.67;7.00;;;;;;;;5005819;27;50868;-69
2022/10/16 01:19:14;;;;;;;;;5.33;5.33;;;;;;;;5002799;27;51548;-69
2022/10/16 01:21:42;;;;;;;;;3.33;3.33;;;;;;;;5007023;27;51732;-69
2022/10/16 01:24:07;;;;;;;;;23.50;22.50;;;;;;;;5006681;28;51158;-67
2022/10/16 01:26:37;;;;;;;;;19.00;19.00;;;;;;;;5002266;27;51124;-68
2022/10/16 01:29:22;;;;;;;;;7.67;6.67;;;;;;;;5011642;27;53072;-69
2022/10/16 01:31:51;;;;;;;;;29.50;28.00;;;;;;;;5003465;27;52943;-67
2022/10/16 01:34:20;;;;;;;;;3.67;3.67;;;;;;;;5001140;27;51187;-68
2022/10/16 01:37:00;;;;;;;;;4.67;4.67;;;;;;;;4999058;28;51294;-68
2022/10/16 01:39:28;;;;;;;;;3.00;3.00;;;;;;;;5004140;28;51077;-68
2022/10/16 01:42:19;;;;;;;;;4.67;4.67;;;;;;;;4995188;27;51522;-68
2022/10/16 01:44:46;;;;;;;;;4.67;4.67;;;;;;;;4998023;27;51252;-69
2022/10/16 01:47:12;;;;;;;;;3.00;3.00;;;;;;;;4995883;27;51264;-69
2022/10/16 01:49:39;;;;;;;;;3.00;3.00;;;;;;;;5002146;27;52131;-68
2022/10/16 01:52:11;;;;;;;;;2.67;2.67;;;;;;;;5007755;28;51660;-68
2022/10/16 01:54:38;;;;;;;;;4.00;4.00;;;;;;;;4996961;28;51097;-69
2022/10/16 01:57:06;;;;;;;;;3.00;3.00;;;;;;;;5001169;27;51134;-69
2022/10/16 01:59:33;;;;;;;;;2.00;2.00;;;;;;;;5004681;27;51632;-69
2022/10/16 02:02:04;;;;;;;;;2.00;2.00;;;;;;;;4998984;27;51150;-69
2022/10/16 02:04:31;;;;;;;;;2.00;2.00;;;;;;;;5004146;27;51161;-69
2022/10/16 02:06:56;;;;;;;;;3.00;3.00;;;;;;;;4996775;27;51362;-67
2022/10/16 02:09:22;;;;;;;;;5.33;5.33;;;;;;;;5003165;27;51348;-68
2022/10/16 02:11:49;;;;;;;;;3.00;3.00;;;;;;;;4999601;27;53534;-70
2022/10/16 02:14:14;;;;;;;;;1.00;1.00;;;;;;;;5001695;27;51081;-67
2022/10/16 02:16:41;;;;;;;;;3.33;3.33;;;;;;;;5012966;27;51179;-68
2022/10/16 02:19:07;;;;;;;;;5.00;5.00;;;;;;;;5005171;27;51174;-66
2022/10/16 02:21:49;;;;;;;;;2.00;2.00;;;;;;;;4997177;27;51770;-68
2022/10/16 02:24:17;;;;;;;;;3.67;3.00;;;;;;;;5003872;27;51329;-68
2022/10/16 02:26:49;;;;;;;;;3.00;3.00;;;;;;;;5003919;27;51019;-68
2022/10/16 02:29:17;;;;;;;;;2.00;2.00;;;;;;;;5010339;27;51162;-67
2022/10/16 02:31:47;;;;;;;;;2.67;2.67;;;;;;;;5007667;28;51090;-68
2022/10/16 02:34:13;;;;;;;;;2.33;2.33;;;;;;;;5003048;27;51193;-68
2022/10/16 02:36:39;;;;;;;;;2.33;2.33;;;;;;;;5004674;27;51933;-68
2022/10/16 02:39:05;;;;;;;;;1.00;1.00;;;;;;;;5002235;27;51078;-68
2022/10/16 02:41:31;;;;;;;;;2.00;2.00;;;;;;;;5001022;27;52638;-68
2022/10/16 02:43:56;;;;;;;;;1.33;1.33;;;;;;;;5007414;27;51213;-69
2022/10/16 02:46:21;;;;;;;;;1.67;1.67;;;;;;;;5005253;27;51240;-69
2022/10/16 02:48:46;;;;;;;;;1.00;1.00;;;;;;;;5003436;27;51029;-68
2022/10/16 02:51:12;;;;;;;;;2.00;1.00;;;;;;;;5003992;27;51175;-68
2022/10/16 02:53:37;;;;;;;;;2.00;1.00;;;;;;;;5005923;28;51035;-69
2022/10/16 02:56:03;;;;;;;;;2.67;1.00;;;;;;;;5004408;27;51220;-68
2022/10/16 02:58:28;;;;;;;;;2.00;1.00;;;;;;;;4999213;27;51293;-70
2022/10/16 03:00:54;;;;;;;;;1.00;0.67;;;;;;;;5010959;27;51848;-68
2022/10/16 03:03:19;;;;;;;;;1.00;1.00;;;;;;;;5006207;27;51207;-66
2022/10/16 03:05:47;;;;;;;;;1.00;1.00;;;;;;;;5007046;28;51485;-68
2022/10/16 03:08:12;;;;;;;;;1.00;1.00;;;;;;;;5002680;27;51060;-68
2022/10/16 03:10:38;;;;;;;;;2.00;2.00;;;;;;;;5006748;27;51287;-68
2022/10/16 03:13:03;;;;;;;;;1.67;1.67;;;;;;;;5003700;27;52532;-68
2022/10/16 03:15:28;;;;;;;;;1.33;1.00;;;;;;;;5007933;27;50914;-69
2022/10/16 03:17:53;;;;;;;;;2.00;2.00;;;;;;;;5009384;28;51101;-68
2022/10/16 03:20:19;;;;;;;;;1.67;1.33;;;;;;;;5003047;27;51192;-68
2022/10/16 03:22:44;;;;;;;;;4.00;3.33;;;;;;;;5008475;27;51537;-68
2022/10/16 03:25:09;;;;;;;;;1.00;1.00;;;;;;;;5006119;27;51008;-68
2022/10/16 03:27:34;;;;;;;;;0.00;0.00;;;;;;;;5008408;28;51243;-69
2022/10/16 03:29:59;;;;;;;;;0.33;0.33;;;;;;;;5002872;27;51955;-68
2022/10/16 03:32:25;;;;;;;;;1.00;1.00;;;;;;;;5003874;27;51115;-69
2022/10/16 03:34:50;;;;;;;;;0.00;0.00;;;;;;;;5005684;27;51048;-68
2022/10/16 03:37:15;;;;;;;;;1.00;1.00;;;;;;;;5001302;27;51269;-68
2022/10/16 03:39:40;;;;;;;;;1.67;1.67;;;;;;;;5003812;27;52808;-67
2022/10/16 03:42:06;;;;;;;;;0.00;0.00;;;;;;;;5003016;27;52452;-68
2022/10/16 03:44:31;;;;;;;;;0.33;0.33;;;;;;;;4996398;27;51060;-67
2022/10/16 03:46:56;;;;;;;;;3.00;3.00;;;;;;;;4995632;28;51222;-68
2022/10/16 03:49:21;;;;;;;;;1.00;1.00;;;;;;;;5003850;27;51669;-68
2022/10/16 03:51:46;;;;;;;;;0.33;0.33;;;;;;;;5004411;27;51107;-69
2022/10/16 03:54:12;;;;;;;;;2.00;1.00;;;;;;;;4999334;27;51166;-68
2022/10/16 03:56:37;;;;;;;;;0.00;0.00;;;;;;;;5006396;27;51312;-68
2022/10/16 03:59:03;;;;;;;;;1.67;1.67;;;;;;;;5004242;27;52860;-67
2022/10/16 04:01:28;;;;;;;;;0.00;0.00;;;;;;;;4994033;27;50884;-68
2022/10/16 04:03:53;;;;;;;;;1.00;0.33;;;;;;;;5004395;27;51371;-68
2022/10/16 04:06:18;;;;;;;;;0.67;0.00;;;;;;;;4996826;27;51343;-68
2022/10/16 04:08:43;;;;;;;;;0.00;0.00;;;;;;;;4999826;27;51129;-67
2022/10/16 04:11:08;;;;;;;;;1.00;1.00;;;;;;;;5005163;27;51089;-68
2022/10/16 04:13:34;;;;;;;;;1.00;1.00;;;;;;;;5010655;28;51283;-69
2022/10/16 04:15:59;;;;;;;;;0.00;0.00;;;;;;;;5019569;27;51412;-68
2022/10/16 04:18:26;;;;;;;;;1.00;0.00;;;;;;;;5002492;27;51340;-68
2022/10/16 04:20:52;;;;;;;;;0.00;0.00;;;;;;;;5003279;27;51213;-68
2022/10/16 04:23:17;;;;;;;;;1.00;1.00;;;;;;;;5000834;27;51759;-69
2022/10/16 04:25:42;;;;;;;;;0.00;0.00;;;;;;;;5005255;27;51072;-67
2022/10/16 04:28:07;;;;;;;;;0.00;0.00;;;;;;;;5005895;27;52157;-67
2022/10/16 04:30:33;;;;;;;;;0.00;0.00;;;;;;;;5006931;27;51200;-68
2022/10/16 04:32:58;;;;;;;;;0.67;0.00;;;;;;;;5005833;27;51277;-68
2022/10/16 04:35:23;;;;;;;;;1.00;1.00;;;;;;;;5007595;27;51435;-68
2022/10/16 04:37:50;;;;;;;;;0.00;0.00;;;;;;;;4999731;27;52125;-67
2022/10/16 04:40:15;;;;;;;;;0.00;0.00;;;;;;;;4994611;27;51202;-67
2022/10/16 04:42:40;;;;;;;;;1.00;0.00;;;;;;;;5004014;27;51165;-68
2022/10/16 04:45:06;;;;;;;;;1.00;1.00;;;;;;;;5000651;27;51291;-67
2022/10/16 04:47:31;;;;;;;;;1.00;1.00;;;;;;;;5003898;27;51951;-67
2022/10/16 04:49:56;;;;;;;;;1.00;1.00;;;;;;;;5002304;27;51152;-67
2022/10/16 04:52:24;;;;;;;;;0.33;0.33;;;;;;;;5007693;27;50921;-70
2022/10/16 04:54:50;;;;;;;;;1.00;1.00;;;;;;;;5005685;27;51004;-70
2022/10/16 04:57:15;;;;;;;;;1.00;1.00;;;;;;;;5005395;27;51800;-68
2022/10/16 04:59:40;;;;;;;;;1.00;1.00;;;;;;;;5005624;28;51440;-67
2022/10/16 05:02:05;;;;;;;;;1.00;0.00;;;;;;;;5013076;27;51927;-67
2022/10/16 05:04:31;;;;;;;;;1.00;0.00;;;;;;;;5003573;27;51160;-69
2022/10/16 05:06:56;;;;;;;;;0.67;0.00;;;;;;;;5001499;27;51861;-68
2022/10/16 05:09:21;;;;;;;;;1.00;1.00;;;;;;;;5006104;27;51193;-69
2022/10/16 05:11:46;;;;;;;;;1.00;0.00;;;;;;;;4999181;28;51068;-67
2022/10/16 05:14:12;;;;;;;;;0.00;0.00;;;;;;;;5000117;27;51298;-67
2022/10/16 05:16:37;;;;;;;;;0.00;0.00;;;;;;;;5006120;27;53426;-68
2022/10/16 05:19:02;;;;;;;;;0.50;0.50;;;;;;;;5006011;27;50873;-69
2022/10/16 05:21:27;;;;;;;;;0.00;0.00;;;;;;;;5000120;27;51243;-66
2022/10/16 05:23:53;;;;;;;;;0.00;0.00;;;;;;;;4999209;27;51343;-68
2022/10/16 05:26:18;;;;;;;;;0.00;0.00;;;;;;;;4996887;27;51603;-68
2022/10/16 05:28:43;;;;;;;;;0.00;0.00;;;;;;;;5003097;27;51174;-68
2022/10/16 05:31:09;;;;;;;;;0.00;0.00;;;;;;;;5011710;27;51276;-67
2022/10/16 05:33:34;;;;;;;;;0.00;0.00;;;;;;;;5006535;27;51014;-68
2022/10/16 05:36:03;;;;;;;;;1.00;1.00;;;;;;;;5002637;27;51892;-67
2022/10/16 05:38:28;;;;;;;;;0.00;0.00;;;;;;;;5004480;27;51093;-68
2022/10/16 05:40:53;;;;;;;;;1.00;1.00;;;;;;;;5003094;27;51123;-67
2022/10/16 05:43:19;;;;;;;;;0.00;0.00;;;;;;;;5013717;27;51011;-67
2022/10/16 05:45:44;;;;;;;;;0.00;0.00;;;;;;;;5005871;27;52685;-67
2022/10/16 05:48:09;;;;;;;;;0.00;0.00;;;;;;;;5004958;27;51997;-68
2022/10/16 05:50:35;;;;;;;;;0.00;0.00;;;;;;;;5007299;27;51323;-69
2022/10/16 05:53:00;;;;;;;;;0.00;0.00;;;;;;;;5002293;27;51154;-68
2022/10/16 05:55:25;;;;;;;;;0.00;0.00;;;;;;;;4994951;28;51117;-67
2022/10/16 05:57:50;;;;;;;;;0.00;0.00;;;;;;;;4999989;27;51200;-68
2022/10/16 06:00:15;;;;;;;;;0.00;0.00;;;;;;;;5005443;27;51729;-67
2022/10/16 06:02:40;;;;;;;;;1.00;0.33;;;;;;;;5001628;27;51180;-67
2022/10/16 06:05:06;;;;;;;;;0.00;0.00;;;;;;;;5003461;27;51259;-68
2022/10/16 06:07:34;;;;;;;;;1.00;1.00;;;;;;;;5004077;27;51218;-68
2022/10/16 06:09:59;;;;;;;;;0.00;0.00;;;;;;;;4997697;27;51053;-66
2022/10/16 06:12:24;;;;;;;;;0.00;0.00;;;;;;;;4996883;27;51237;-68
2022/10/16 06:14:50;;;;;;;;;0.00;0.00;;;;;;;;5002120;27;51919;-68
2022/10/16 06:17:15;;;;;;;;;2.00;1.00;;;;;;;;5004577;27;51266;-68
2022/10/16 06:19:41;;;;;;;;;1.00;1.00;;;;;;;;5002731;27;51113;-68
2022/10/16 06:22:06;;;;;;;;;1.00;1.00;;;;;;;;5000636;27;54536;-67
2022/10/16 06:24:31;;;;;;;;;1.00;1.00;;;;;;;;5001304;27;52106;-68
2022/10/16 06:26:56;;;;;;;;;1.33;1.33;;;;;;;;5002667;27;51304;-68
2022/10/16 06:29:22;;;;;;;;;0.00;0.00;;;;;;;;5000673;27;51054;-68
2022/10/16 06:31:47;;;;;;;;;2.33;2.00;;;;;;;;4997547;27;51088;-70
2022/10/16 06:34:12;;;;;;;;;2.67;2.67;;;;;;;;4998930;27;51607;-68
2022/10/16 06:36:38;;;;;;;;;1.00;1.00;;;;;;;;5004708;27;51166;-69
2022/10/16 06:39:04;;;;;;;;;2.00;2.00;;;;;;;;5005109;27;51068;-69
2022/10/16 06:41:29;;;;;;;;;2.67;1.67;;;;;;;;5011190;27;51104;-68
2022/10/16 06:43:54;;;;;;;;;1.67;1.67;;;;;;;;5006975;27;51091;-69
2022/10/16 06:46:21;;;;;;;;;6.67;6.00;;;;;;;;5018339;27;51349;-69
2022/10/16 06:48:47;;;;;;;;;1.67;1.67;;;;;;;;5002605;27;51108;-69
2022/10/16 06:51:13;;;;;;;;;2.67;1.33;;;;;;;;5000091;27;51250;-72
2022/10/16 06:53:42;;;;;;;;;2.00;1.33;;;;;;;;5006423;28;52395;-70
2022/10/16 06:56:15;;;;;;;;;1.00;1.00;;;;;;;;5012626;27;51187;-70
2022/10/16 06:58:41;;;;;;;;;1.00;1.00;;;;;;;;4997102;27;51080;-72
2022/10/16 07:01:07;;;;;;;;;1.00;1.00;;;;;;;;5005653;27;51068;-71
2022/10/16 07:03:32;;;;;;;;;1.00;1.00;;;;;;;;4997992;27;52780;-70
2022/10/16 07:06:01;;;;;;;;;2.00;2.00;;;;;;;;5002878;27;51135;-71
2022/10/16 07:08:26;;;;;;;;;3.00;3.00;;;;;;;;5003053;27;51138;-71
2022/10/16 07:10:58;;;;;;;;;2.00;2.00;;;;;;;;5020573;27;51175;-72
2022/10/16 07:13:23;;;;;;;;;2.00;2.00;;;;;;;;5002106;27;51994;-71
2022/10/16 07:15:48;;;;;;;;;4.00;3.00;;;;;;;;5013578;27;51688;-69
2022/10/16 07:18:13;;;;;;;;;2.67;2.67;;;;;;;;5011369;27;52432;-64
2022/10/16 07:20:38;;;;;;;;;3.33;3.33;;;;;;;;5003432;27;51366;-66
2022/10/16 07:23:03;;;;;;;;;4.00;4.00;;;;;;;;5010247;27;52145;-65
2022/10/16 07:25:29;;;;;;;;;6.67;5.00;;;;;;;;5007921;27;51121;-64
2022/10/16 07:27:55;;;;;;;;;3.67;3.67;;;;;;;;5011120;27;51079;-56
2022/10/16 07:30:21;;;;;;;;;3.00;3.00;;;;;;;;5013365;27;51018;-56
2022/10/16 07:32:46;;;;;;;;;3.67;3.00;;;;;;;;5005827;27;51165;-57
2022/10/16 07:35:11;;;;;;;;;3.00;3.00;;;;;;;;5011522;27;52110;-57
2022/10/16 07:37:36;;;;;;;;;4.67;4.67;;;;;;;;5013496;27;51007;-57
2022/10/16 07:40:02;;;;;;;;;5.00;5.00;;;;;;;;5012844;27;51355;-56
2022/10/16 07:42:27;;;;;;;;;5.33;5.00;;;;;;;;5006968;28;51262;-57
2022/10/16 07:44:52;;;;;;;;;5.00;5.00;;;;;;;;5011191;27;51168;-55
2022/10/16 07:47:17;;;;;;;;;3.00;3.00;;;;;;;;4985193;27;52634;-51
2022/10/16 07:49:42;;;;;;;;;4.67;4.67;;;;;;;;5003342;27;51293;-49
2022/10/16 07:52:08;;;;;;;;;4.67;3.67;;;;;;;;5004113;27;51979;-48
2022/10/16 07:54:33;;;;;;;;;4.00;4.00;;;;;;;;5000821;27;51085;-49
2022/10/16 07:56:58;;;;;;;;;4.67;4.00;;;;;;;;5001051;27;51122;-50
2022/10/16 07:59:23;;;;;;;;;6.00;5.33;;;;;;;;5007162;27;51121;-50
2022/10/16 08:01:49;;;;;;;;;4.33;4.00;;;;;;;;5006929;28;52621;-51
2022/10/16 08:04:14;;;;;;;;;5.00;4.33;;;;;;;;5002945;27;51095;-51
2022/10/16 08:06:39;;;;;;;;;4.00;4.00;;;;;;;;4999384;27;51150;-51
2022/10/16 08:09:05;;;;;;;;;3.00;3.00;;;;;;;;5003347;27;51739;-48
2022/10/16 08:11:31;;;;;;;;;4.00;4.00;;;;;;;;4999034;27;51212;-50
2022/10/16 08:13:56;;;;;;;;;4.67;4.67;;;;;;;;5004660;28;51016;-50
2022/10/16 08:16:22;;;;;;;;;4.33;4.00;;;;;;;;5036362;27;51240;-53
2022/10/16 08:18:47;;;;;;;;;7.00;4.00;;;;;;;;5004117;27;51184;-51
2022/10/16 08:21:15;;;;;;;;;4.00;4.00;;;;;;;;5007494;27;51782;-49
2022/10/16 08:23:40;;;;;;;;;5.00;4.00;;;;;;;;5003751;27;51157;-50
2022/10/16 08:26:06;;;;;;;;;4.67;4.00;;;;;;;;5010220;27;51134;-51
2022/10/16 08:28:31;;;;;;;;;4.67;4.33;;;;;;;;5005153;27;51233;-50
2022/10/16 08:31:04;;;;;;;;;5.00;5.00;;;;;;;;5003581;27;51676;-52
2022/10/16 08:33:29;;;;;;;;;5.00;4.33;;;;;;;;5007368;27;51014;-49
2022/10/16 08:35:54;;;;;;;;;6.00;6.00;;;;;;;;5006203;27;50949;-51
2022/10/16 08:38:20;;;;;;;;;5.00;5.00;;;;;;;;5012913;28;51488;-49
2022/10/16 08:40:45;;;;;;;;;3.33;3.00;;;;;;;;5001386;27;51121;-49
2022/10/16 08:43:13;;;;;;;;;5.00;5.00;;;;;;;;4997227;27;51380;-51
2022/10/16 08:45:44;;;;;;;;;6.00;6.00;;;;;;;;5005607;27;51105;-50
2022/10/16 08:48:23;;;;;;;;;6.67;6.00;;;;;;;;5001288;27;50939;-50
2022/10/16 08:50:50;;;;;;;;;4.00;4.00;;;;;;;;5003988;28;51111;-51
2022/10/16 08:53:28;;;;;;;;;4.67;4.00;;;;;;;;5006720;27;53256;-48
2022/10/16 08:55:53;;;;;;;;;2.00;1.67;;;;;;;;5006294;27;51134;-46
2022/10/16 08:58:37;;;;;;;;;4.00;4.00;;;;;;;;5020775;27;51701;-49
2022/10/16 09:01:03;;;;;;;;;7.00;7.00;;;;;;;;5010850;27;51044;-48
2022/10/16 09:03:35;;;;;;;;;6.00;5.67;;;;;;;;5008551;28;51061;-46
2022/10/16 09:06:06;;;;;;;;;4.00;3.33;;;;;;;;5007504;28;50926;-47
2022/10/16 09:08:46;;;;;;;;;7.00;7.00;;;;;;;;4997104;27;51350;-47
2022/10/16 09:11:16;;;;;;;;;8.00;8.00;;;;;;;;5004003;27;51885;-48
2022/10/16 09:13:51;;;;;;;;;7.67;6.00;;;;;;;;5002876;27;51229;-47
2022/10/16 09:16:24;;;;;;;;;6.00;6.00;;;;;;;;5016223;27;51142;-48
2022/10/16 09:18:55;;;;;;;;;7.00;6.67;;;;;;;;5008935;27;50978;-49
2022/10/16 09:21:23;;;;;;;;;7.00;7.00;;;;;;;;5009520;27;52791;-49
2022/10/16 09:23:48;;;;;;;;;8.00;8.00;;;;;;;;4994910;27;51584;-49
2022/10/16 09:26:15;;;;;;;;;7.33;6.33;;;;;;;;5005515;27;51541;-48
2022/10/16 09:28:40;;;;;;;;;8.00;8.00;;;;;;;;5003870;27;51415;-48
2022/10/16 09:31:10;;;;;;;;;10.00;9.00;;;;;;;;5008606;28;51041;-49
2022/10/16 09:33:37;;;;;;;;;7.00;7.00;;;;;;;;5005159;27;51208;-48
2022/10/16 09:36:05;;;;;;;;;7.33;7.33;;;;;;;;5011292;27;50988;-47
2022/10/16 09:38:35;;;;;;;;;7.00;6.00;;;;;;;;4993146;27;51401;-47
2022/10/16 09:41:02;;;;;;;;;5.67;5.33;;;;;;;;5001471;27;51215;-47
2022/10/16 09:43:30;;;;;;;;;8.00;8.00;;;;;;;;4990960;28;51295;-49
2022/10/16 09:45:57;;;;;;;;;6.67;6.67;;;;;;;;5001358;27;51282;-47
2022/10/16 09:48:23;;;;;;;;;7.67;6.00;;;;;;;;5000529;27;51241;-47
2022/10/16 09:50:58;;;;;;;;;6.00;6.00;;;;;;;;5005187;27;52097;-50
2022/10/16 09:53:25;;;;;;;;;8.00;8.00;;;;;;;;5001955;27;52680;-49
2022/10/16 09:55:51;;;;;;;;;5.33;5.33;;;;;;;;5016762;27;51208;-49
2022/10/16 09:58:16;;;;;;;;;9.00;8.00;;;;;;;;5001168;27;51259;-49
2022/10/16 10:00:48;;;;;;;;;15.67;14.67;;;;;;;;5019624;27;51502;-48
2022/10/16 10:03:23;;;;;;;;;25.67;23.00;;;;;;;;5003289;27;51125;-49
2022/10/16 10:05:49;;;;;;;;;3.67;3.67;;;;;;;;4999199;27;51037;-48
2022/10/16 10:08:17;;;;;;;;;3.00;3.00;;;;;;;;5002236;27;51039;-47
2022/10/16 10:10:43;;;;;;;;;5.00;5.00;;;;;;;;5006856;27;51906;-48
2022/10/16 10:13:20;;;;;;;;;5.00;5.00;;;;;;;;4998868;27;51116;-48
2022/10/16 10:15:45;;;;;;;;;3.67;3.67;;;;;;;;4997796;27;51105;-48
2022/10/16 10:18:22;;;;;;;;;6.67;6.00;;;;;;;;5002192;27;51407;-48
2022/10/16 10:20:56;;;;;;;;;5.00;5.00;;;;;;;;4998959;27;51238;-48
2022/10/16 10:23:23;;;;;;;;;4.00;4.00;;;;;;;;5005145;28;51297;-50
2022/10/16 10:25:51;;;;;;;;;4.00;3.67;;;;;;;;5002866;27;51160;-50
2022/10/16 10:28:44;;;;;;;;;4.00;4.00;;;;;;;;4994351;27;51020;-49
2022/10/16 10:31:16;;;;;;;;;6.00;5.33;;;;;;;;4990782;27;52844;-51
2022/10/16 10:33:46;;;;;;;;;2.00;2.00;;;;;;;;5006996;27;51105;-49
2022/10/16 10:36:34;;;;;;;;;2.00;2.00;;;;;;;;5003809;27;51429;-50
2022/10/16 10:38:59;;;;;;;;;5.00;5.00;;;;;;;;5004313;27;50969;-48
2022/10/16 10:41:30;;;;;;;;;4.00;4.00;;;;;;;;4996861;28;51784;-46
2022/10/16 10:44:01;;;;;;;;;4.00;4.00;;;;;;;;5004610;27;51160;-49
2022/10/16 10:46:29;;;;;;;;;3.00;3.00;;;;;;;;5005264;27;51172;-46
2022/10/16 10:49:13;;;;;;;;;4.67;3.67;;;;;;;;4999120;27;51233;-49
2022/10/16 10:51:44;;;;;;;;;3.33;3.33;;;;;;;;5002310;27;51776;-48
2022/10/16 10:54:36;;;;;;;;;5.00;4.00;;;;;;;;5005812;27;51462;-48
2022/10/16 10:57:21;;;;;;;;;3.67;3.33;;;;;;;;5006586;28;51446;-50
2022/10/16 10:59:49;;;;;;;;;2.00;2.00;;;;;;;;5007129;28;51371;-47
2022/10/16 11:02:29;;;;;;;;;2.00;2.00;;;;;;;;5023189;27;52073;-48
2022/10/16 11:05:15;;;;;;;;;0.67;0.67;;;;;;;;5009128;28;51102;-47
2022/10/16 11:07:44;;;;;;;;;1.00;1.00;;;;;;;;5008482;28;51260;-47
2022/10/16 11:10:15;;;;;;;;;3.00;3.00;;;;;;;;5004937;28;51051;-48
2022/10/16 11:12:43;;;;;;;;;1.00;1.00;;;;;;;;5008824;28;52073;-47
2022/10/16 11:15:11;;;;;;;;;2.67;2.00;;;;;;;;5009473;28;50919;-47
2022/10/16 11:17:43;;;;;;;;;2.67;2.00;;;;;;;;5012594;27;51175;-48
2022/10/16 11:20:15;;;;;;;;;1.33;1.33;;;;;;;;5010398;27;51005;-50
2022/10/16 11:22:44;;;;;;;;;4.00;3.00;;;;;;;;5005431;27;52811;-47
2022/10/16 11:25:15;;;;;;;;;2.33;2.33;;;;;;;;5008876;27;51165;-47
2022/10/16 11:27:54;;;;;;;;;2.00;2.00;;;;;;;;5009648;28;51040;-46
2022/10/16 11:30:21;;;;;;;;;2.00;2.00;;;;;;;;5006440;28;51112;-47
2022/10/16 11:32:55;;;;;;;;;3.00;3.00;;;;;;;;5008989;27;51957;-48
2022/10/16 11:35:24;;;;;;;;;3.00;2.00;;;;;;;;5008594;27;50993;-50
2022/10/16 11:37:51;;;;;;;;;2.67;2.00;;;;;;;;5009489;27;51088;-47
2022/10/16 11:40:17;;;;;;;;;3.67;3.00;;;;;;;;5008192;27;51430;-52
2022/10/16 11:42:48;;;;;;;;;3.67;3.33;;;;;;;;5008762;28;51070;-48
2022/10/16 11:45:23;;;;;;;;;6.00;6.00;;;;;;;;5009041;28;51162;-48
2022/10/16 11:47:52;;;;;;;;;7.33;7.33;;;;;;;;5008888;28;51196;-48
2022/10/16 11:50:17;;;;;;;;;6.67;6.00;;;;;;;;5007736;28;50869;-49
2022/10/16 11:53:01;;;;;;;;;10.67;10.00;;;;;;;;5008489;27;51818;-48
2022/10/16 11:55:31;;;;;;;;;8.67;7.00;;;;;;;;5007695;28;51111;-48
2022/10/16 11:58:02;;;;;;;;;6.00;6.00;;;;;;;;5009110;27;51192;-49
2022/10/16 12:00:34;;;;;;;;;6.00;5.00;;;;;;;;5009972;27;51345;-47
2022/10/16 12:03:09;;;;;;;;;4.00;4.00;;;;;;;;5009013;28;51306;-49
2022/10/16 12:05:52;;;;;;;;;5.00;5.00;;;;;;;;5008558;28;51082;-47
2022/10/16 12:08:18;;;;;;;;;5.00;4.00;;;;;;;;5008147;28;51994;-47
2022/10/16 12:10:45;;;;;;;;;3.33;3.00;;;;;;;;5008712;28;51063;-49
2022/10/16 12:13:48;;;;;;;;;5.67;5.00;;;;;;;;5007345;27;51705;-46
2022/10/16 12:16:13;;;;;;;;;4.00;4.00;;;;;;;;4953107;28;51167;-47
2022/10/16 12:18:39;;;;;;;;;6.00;6.00;;;;;;;;4997642;28;51288;-46
2022/10/16 12:21:06;;;;;;;;;7.33;7.00;;;;;;;;5007781;28;51243;-46
2022/10/16 12:23:32;;;;;;;;;6.00;5.00;;;;;;;;5006786;28;51730;-49
2022/10/16 12:25:58;;;;;;;;;2.33;2.33;;;;;;;;5008034;27;51158;-47
2022/10/16 12:28:28;;;;;;;;;2.00;2.00;;;;;;;;5007317;27;51176;-48
2022/10/16 12:30:55;;;;;;;;;5.00;4.00;;;;;;;;5003106;28;51086;-48
2022/10/16 12:33:37;;;;;;;;;2.67;2.33;;;;;;;;5003043;27;51134;-47
2022/10/16 12:36:21;;;;;;;;;6.33;6.00;;;;;;;;5003333;28;51138;-47
2022/10/16 12:38:47;;;;;;;;;4.00;4.00;;;;;;;;5008665;28;51122;-49
2022/10/16 12:41:24;;;;;;;;;7.33;7.00;;;;;;;;5005202;28;51170;-47
2022/10/16 12:43:49;;;;;;;;;7.00;7.00;;;;;;;;5002994;28;51048;-49
2022/10/16 12:46:14;;;;;;;;;3.67;3.67;;;;;;;;5003560;28;51051;-51
2022/10/16 12:48:41;;;;;;;;;4.33;3.33;;;;;;;;5007263;27;51293;-52
2022/10/16 12:51:22;;;;;;;;;4.33;4.33;;;;;;;;5004138;28;51392;-48
2022/10/16 12:53:57;;;;;;;;;3.33;2.67;;;;;;;;5015899;28;52023;-51
2022/10/16 12:56:26;;;;;;;;;4.00;4.00;;;;;;;;5008589;28;51200;-52
2022/10/16 12:59:00;;;;;;;;;9.00;7.00;;;;;;;;5008859;28;51124;-52
2022/10/16 13:01:25;;;;;;;;;5.00;5.00;;;;;;;;5020967;27;51492;-50
2022/10/16 13:03:53;;;;;;;;;6.00;6.00;;;;;;;;5009826;27;51200;-52
2022/10/16 13:06:33;;;;;;;;;6.33;6.00;;;;;;;;5008039;27;51059;-50
2022/10/16 13:09:13;;;;;;;;;5.67;5.67;;;;;;;;5008190;27;51084;-51
2022/10/16 13:11:44;;;;;;;;;8.00;7.00;;;;;;;;5009349;28;50905;-50
2022/10/16 13:14:12;;;;;;;;;5.00;4.33;;;;;;;;4994658;27;51102;-51
2022/10/16 13:16:37;;;;;;;;;4.00;4.00;;;;;;;;5033104;27;50801;-51
2022/10/16 13:19:02;;;;;;;;;5.00;5.00;;;;;;;;4996840;27;50907;-49
2022/10/16 13:21:30;;;;;;;;;6.00;5.33;;;;;;;;5006804;28;51181;-52
2022/10/16 13:24:03;;;;;;;;;5.67;5.67;;;;;;;;5000400;28;51833;-52
2022/10/16 13:26:38;;;;;;;;;5.00;5.00;;;;;;;;5009534;28;50860;-51
2022/10/16 13:29:03;;;;;;;;;5.33;5.33;;;;;;;;5003639;28;51051;-50
2022/10/16 13:31:30;;;;;;;;;14.33;14.33;;;;;;;;5006368;28;51090;-49
2022/10/16 13:33:58;;;;;;;;;5.00;5.00;;;;;;;;5009134;28;51002;-51
2022/10/16 13:36:25;;;;;;;;;8.33;8.00;;;;;;;;4999982;27;51270;-50
2022/10/16 13:39:00;;;;;;;;;7.67;6.00;;;;;;;;5008741;28;51246;-50
2022/10/16 13:41:26;;;;;;;;;4.67;4.33;;;;;;;;5008791;28;51263;-49
2022/10/16 13:43:52;;;;;;;;;8.00;7.00;;;;;;;;5008109;28;51752;-51
2022/10/16 13:46:18;;;;;;;;;4.00;4.00;;;;;;;;5005023;28;50990;-50
2022/10/16 13:48:44;;;;;;;;;9.00;8.67;;;;;;;;5006570;28;51250;-50
2022/10/16 13:51:14;;;;;;;;;7.00;7.00;;;;;;;;5008750;28;51174;-50
2022/10/16 13:53:40;;;;;;;;;6.00;6.00;;;;;;;;5016939;27;51782;-51
2022/10/16 13:56:06;;;;;;;;;6.33;6.33;;;;;;;;4999341;28;51132;-49
2022/10/16 13:58:32;;;;;;;;;5.00;5.00;;;;;;;;5006382;28;50904;-51
2022/10/16 14:01:24;;;;;;;;;6.33;6.00;;;;;;;;5043207;27;51070;-53
2022/10/16 14:03:50;;;;;;;;;8.00;7.00;;;;;;;;4993450;28;53111;-52
2022/10/16 14:06:17;;;;;;;;;5.00;5.00;;;;;;;;5008579;28;50969;-49
2022/10/16 14:08:44;;;;;;;;;9.00;8.67;;;;;;;;5008244;27;50953;-51
2022/10/16 14:11:10;;;;;;;;;5.00;4.33;;;;;;;;5008436;27;50969;-49
2022/10/16 14:13:42;;;;;;;;;7.00;7.00;;;;;;;;5007356;27;51785;-52
2022/10/16 14:16:09;;;;;;;;;5.33;5.33;;;;;;;;5021209;27;51933;-51
2022/10/16 14:18:35;;;;;;;;;7.00;7.00;;;;;;;;5004043;27;52145;-50
2022/10/16 14:21:10;;;;;;;;;7.00;6.67;;;;;;;;5009948;27;51268;-50
2022/10/16 14:23:37;;;;;;;;;5.00;5.00;;;;;;;;5010858;28;51231;-52
2022/10/16 14:26:06;;;;;;;;;7.00;7.00;;;;;;;;5011065;27;51012;-51
2022/10/16 14:28:31;;;;;;;;;5.33;5.00;;;;;;;;5011485;27;51155;-51
2022/10/16 14:30:58;;;;;;;;;8.00;8.00;;;;;;;;5011215;28;51029;-49
2022/10/16 14:33:25;;;;;;;;;7.00;7.00;;;;;;;;5009062;27;50935;-51
2022/10/16 14:36:18;;;;;;;;;6.67;5.00;;;;;;;;5010986;28;50960;-51
2022/10/16 14:38:49;;;;;;;;;7.00;6.33;;;;;;;;4998082;28;51113;-50
2022/10/16 14:41:14;;;;;;;;;7.00;6.00;;;;;;;;5011209;28;51006;-51
2022/10/16 14:43:41;;;;;;;;;6.00;6.00;;;;;;;;5010400;28;51113;-51
2022/10/16 14:46:11;;;;;;;;;6.00;6.00;;;;;;;;5006516;28;51193;-52
2022/10/16 14:48:39;;;;;;;;;6.33;6.33;;;;;;;;5009772;28;51026;-50